sensor_id;sensor_type;location;lat;lon;timestamp;P1;durP1;ratioP1;P2;durP2;ratioP2
11287;SDS011;5700;50.996;7.044;2022-10-31T00:02:08;9.68;;;4.75;;
11287;SDS011;5700;50.996;7.044;2022-10-31T00:05:09;7.18;;;3.72;;
11287;SDS011;5700;50.996;7.044;2022-10-31T00:08:11;8.25;;;3.75;;
11287;SDS011;5700;50.996;7.044;2022-10-31T00:11:12;7.80;;;3.97;;
11287;SDS011;5700;50.996;7.044;2022-10-31T00:14:14;7.95;;;3.90;;
11287;SDS011;5700;50.996;7.044;2022-10-31T00:17:17;9.18;;;4.43;;
11287;SDS011;5700;50.996;7.044;2022-10-31T00:20:18;10.65;;;4.20;;
11287;SDS011;5700;50.996;7.044;2022-10-31T00:23:19;9.20;;;4.15;;
11287;SDS011;5700;50.996;7.044;2022-10-31T00:26:21;8.82;;;4.35;;
11287;SDS011;5700;50.996;7.044;2022-10-31T00:29:22;9.90;;;4.20;;
11287;SDS011;5700;50.996;7.044;2022-10-31T00:32:25;11.70;;;4.32;;
11287;SDS011;5700;50.996;7.044;2022-10-31T00:35:26;8.02;;;3.67;;
11287;SDS011;5700;50.996;7.044;2022-10-31T00:38:28;8.80;;;4.30;;
11287;SDS011;5700;50.996;7.044;2022-10-31T00:41:29;11.15;;;4.47;;
11287;SDS011;5700;50.996;7.044;2022-10-31T00:44:31;8.50;;;4.18;;
11287;SDS011;5700;50.996;7.044;2022-10-31T00:47:33;8.77;;;3.53;;
11287;SDS011;5700;50.996;7.044;2022-10-31T00:50:35;10.43;;;4.10;;
11287;SDS011;5700;50.996;7.044;2022-10-31T00:53:36;9.00;;;4.65;;
11287;SDS011;5700;50.996;7.044;2022-10-31T00:56:38;9.95;;;4.35;;
11287;SDS011;5700;50.996;7.044;2022-10-31T00:59:39;7.40;;;3.55;;
11287;SDS011;5700;50.996;7.044;2022-10-31T01:02:42;12.25;;;4.57;;
11287;SDS011;5700;50.996;7.044;2022-10-31T01:05:43;7.72;;;4.22;;
11287;SDS011;5700;50.996;7.044;2022-10-31T01:08:45;12.55;;;5.28;;
11287;SDS011;5700;50.996;7.044;2022-10-31T01:11:48;12.75;;;5.22;;
11287;SDS011;5700;50.996;7.044;2022-10-31T01:14:49;10.27;;;4.72;;
11287;SDS011;5700;50.996;7.044;2022-10-31T01:17:52;14.82;;;4.20;;
11287;SDS011;5700;50.996;7.044;2022-10-31T01:20:56;10.07;;;4.10;;
11287;SDS011;5700;50.996;7.044;2022-10-31T01:24:00;12.30;;;4.03;;
11287;SDS011;5700;50.996;7.044;2022-10-31T01:27:02;10.88;;;4.78;;
11287;SDS011;5700;50.996;7.044;2022-10-31T01:30:04;11.05;;;4.93;;
11287;SDS011;5700;50.996;7.044;2022-10-31T01:33:07;8.73;;;4.20;;
11287;SDS011;5700;50.996;7.044;2022-10-31T01:36:10;7.50;;;4.03;;
11287;SDS011;5700;50.996;7.044;2022-10-31T01:39:15;7.78;;;4.07;;
11287;SDS011;5700;50.996;7.044;2022-10-31T01:42:18;9.65;;;4.00;;
11287;SDS011;5700;50.996;7.044;2022-10-31T01:45:21;10.82;;;4.38;;
11287;SDS011;5700;50.996;7.044;2022-10-31T01:48:24;9.07;;;4.03;;
11287;SDS011;5700;50.996;7.044;2022-10-31T01:51:28;14.80;;;5.65;;
11287;SDS011;5700;50.996;7.044;2022-10-31T01:54:31;11.40;;;4.93;;
11287;SDS011;5700;50.996;7.044;2022-10-31T01:57:35;9.73;;;4.10;;
11287;SDS011;5700;50.996;7.044;2022-10-31T02:00:39;17.05;;;4.40;;
11287;SDS011;5700;50.996;7.044;2022-10-31T02:03:43;10.63;;;4.45;;
11287;SDS011;5700;50.996;7.044;2022-10-31T02:06:46;8.57;;;4.20;;
11287;SDS011;5700;50.996;7.044;2022-10-31T02:09:50;9.07;;;4.53;;
11287;SDS011;5700;50.996;7.044;2022-10-31T02:12:53;13.70;;;4.60;;
11287;SDS011;5700;50.996;7.044;2022-10-31T02:15:57;9.98;;;4.35;;
11287;SDS011;5700;50.996;7.044;2022-10-31T02:19:01;8.45;;;4.45;;
11287;SDS011;5700;50.996;7.044;2022-10-31T02:22:05;12.30;;;3.90;;
11287;SDS011;5700;50.996;7.044;2022-10-31T02:25:15;7.88;;;3.75;;
11287;SDS011;5700;50.996;7.044;2022-10-31T02:28:30;7.03;;;3.97;;
11287;SDS011;5700;50.996;7.044;2022-10-31T02:31:43;9.90;;;4.18;;
11287;SDS011;5700;50.996;7.044;2022-10-31T02:34:50;8.35;;;3.88;;
11287;SDS011;5700;50.996;7.044;2022-10-31T02:37:56;9.48;;;4.32;;
11287;SDS011;5700;50.996;7.044;2022-10-31T02:41:04;9.43;;;4.20;;
11287;SDS011;5700;50.996;7.044;2022-10-31T02:44:10;7.75;;;4.18;;
11287;SDS011;5700;50.996;7.044;2022-10-31T02:47:18;10.38;;;4.15;;
11287;SDS011;5700;50.996;7.044;2022-10-31T02:50:24;10.77;;;4.40;;
11287;SDS011;5700;50.996;7.044;2022-10-31T02:53:31;8.27;;;3.90;;
11287;SDS011;5700;50.996;7.044;2022-10-31T02:56:32;11.35;;;4.68;;
11287;SDS011;5700;50.996;7.044;2022-10-31T02:59:34;10.13;;;3.85;;
11287;SDS011;5700;50.996;7.044;2022-10-31T03:02:42;9.75;;;4.03;;
11287;SDS011;5700;50.996;7.044;2022-10-31T03:05:56;6.88;;;3.55;;
11287;SDS011;5700;50.996;7.044;2022-10-31T03:09:01;6.80;;;3.78;;
11287;SDS011;5700;50.996;7.044;2022-10-31T03:12:07;8.25;;;4.10;;
11287;SDS011;5700;50.996;7.044;2022-10-31T03:15:12;11.77;;;4.53;;
11287;SDS011;5700;50.996;7.044;2022-10-31T03:18:18;7.40;;;3.80;;
11287;SDS011;5700;50.996;7.044;2022-10-31T03:21:25;7.30;;;3.83;;
11287;SDS011;5700;50.996;7.044;2022-10-31T03:24:29;10.73;;;3.72;;
11287;SDS011;5700;50.996;7.044;2022-10-31T03:27:34;8.77;;;4.10;;
11287;SDS011;5700;50.996;7.044;2022-10-31T03:30:36;9.52;;;3.58;;
11287;SDS011;5700;50.996;7.044;2022-10-31T03:33:40;11.05;;;4.63;;
11287;SDS011;5700;50.996;7.044;2022-10-31T03:36:43;6.35;;;3.72;;
11287;SDS011;5700;50.996;7.044;2022-10-31T03:39:46;10.98;;;4.63;;
11287;SDS011;5700;50.996;7.044;2022-10-31T03:42:51;6.60;;;3.67;;
11287;SDS011;5700;50.996;7.044;2022-10-31T03:45:54;7.53;;;3.50;;
11287;SDS011;5700;50.996;7.044;2022-10-31T03:48:57;8.25;;;4.05;;
11287;SDS011;5700;50.996;7.044;2022-10-31T03:52:01;7.00;;;3.30;;
11287;SDS011;5700;50.996;7.044;2022-10-31T03:55:07;11.45;;;4.35;;
11287;SDS011;5700;50.996;7.044;2022-10-31T03:58:12;7.18;;;3.85;;
11287;SDS011;5700;50.996;7.044;2022-10-31T04:01:18;7.60;;;3.80;;
11287;SDS011;5700;50.996;7.044;2022-10-31T04:04:22;7.32;;;3.95;;
11287;SDS011;5700;50.996;7.044;2022-10-31T04:07:25;16.27;;;4.97;;
11287;SDS011;5700;50.996;7.044;2022-10-31T04:10:29;10.02;;;3.72;;
11287;SDS011;5700;50.996;7.044;2022-10-31T04:13:31;10.30;;;4.07;;
11287;SDS011;5700;50.996;7.044;2022-10-31T04:16:35;8.70;;;4.07;;
11287;SDS011;5700;50.996;7.044;2022-10-31T04:19:37;9.50;;;3.90;;
11287;SDS011;5700;50.996;7.044;2022-10-31T04:22:39;8.90;;;3.60;;
11287;SDS011;5700;50.996;7.044;2022-10-31T04:25:40;10.85;;;4.93;;
11287;SDS011;5700;50.996;7.044;2022-10-31T04:28:42;11.50;;;4.05;;
11287;SDS011;5700;50.996;7.044;2022-10-31T04:31:43;9.38;;;3.85;;
11287;SDS011;5700;50.996;7.044;2022-10-31T04:34:46;6.57;;;3.90;;
11287;SDS011;5700;50.996;7.044;2022-10-31T04:37:47;10.18;;;3.47;;
11287;SDS011;5700;50.996;7.044;2022-10-31T04:40:48;10.27;;;4.65;;
11287;SDS011;5700;50.996;7.044;2022-10-31T04:43:50;9.25;;;3.63;;
11287;SDS011;5700;50.996;7.044;2022-10-31T04:46:51;8.25;;;3.85;;
11287;SDS011;5700;50.996;7.044;2022-10-31T04:49:54;8.02;;;3.78;;
11287;SDS011;5700;50.996;7.044;2022-10-31T04:52:55;9.90;;;3.65;;
11287;SDS011;5700;50.996;7.044;2022-10-31T04:55:57;9.80;;;3.72;;
11287;SDS011;5700;50.996;7.044;2022-10-31T04:58:59;9.15;;;4.00;;
11287;SDS011;5700;50.996;7.044;2022-10-31T05:02:00;8.32;;;3.45;;
11287;SDS011;5700;50.996;7.044;2022-10-31T05:05:03;7.15;;;3.88;;
11287;SDS011;5700;50.996;7.044;2022-10-31T05:08:06;10.00;;;4.15;;
11287;SDS011;5700;50.996;7.044;2022-10-31T05:11:07;9.55;;;3.65;;
11287;SDS011;5700;50.996;7.044;2022-10-31T05:14:08;10.20;;;4.43;;
11287;SDS011;5700;50.996;7.044;2022-10-31T05:17:10;8.23;;;4.10;;
11287;SDS011;5700;50.996;7.044;2022-10-31T05:20:13;7.38;;;3.67;;
11287;SDS011;5700;50.996;7.044;2022-10-31T05:23:15;8.20;;;4.00;;
11287;SDS011;5700;50.996;7.044;2022-10-31T05:26:17;7.43;;;3.58;;
11287;SDS011;5700;50.996;7.044;2022-10-31T05:29:18;11.45;;;3.83;;
11287;SDS011;5700;50.996;7.044;2022-10-31T05:32:19;11.70;;;4.22;;
11287;SDS011;5700;50.996;7.044;2022-10-31T05:35:23;7.18;;;3.78;;
11287;SDS011;5700;50.996;7.044;2022-10-31T05:38:25;7.85;;;4.28;;
11287;SDS011;5700;50.996;7.044;2022-10-31T05:41:26;7.68;;;3.42;;
11287;SDS011;5700;50.996;7.044;2022-10-31T05:44:28;8.18;;;3.80;;
11287;SDS011;5700;50.996;7.044;2022-10-31T05:47:29;6.28;;;3.45;;
11287;SDS011;5700;50.996;7.044;2022-10-31T05:50:32;8.82;;;4.20;;
11287;SDS011;5700;50.996;7.044;2022-10-31T05:53:33;10.70;;;3.65;;
11287;SDS011;5700;50.996;7.044;2022-10-31T05:56:35;7.05;;;4.05;;
11287;SDS011;5700;50.996;7.044;2022-10-31T05:59:36;7.22;;;3.63;;
11287;SDS011;5700;50.996;7.044;2022-10-31T06:02:37;8.07;;;4.15;;
11287;SDS011;5700;50.996;7.044;2022-10-31T06:05:40;10.38;;;4.43;;
11287;SDS011;5700;50.996;7.044;2022-10-31T06:08:41;9.10;;;4.15;;
11287;SDS011;5700;50.996;7.044;2022-10-31T06:11:43;8.13;;;4.03;;
11287;SDS011;5700;50.996;7.044;2022-10-31T06:14:44;8.85;;;4.18;;
11287;SDS011;5700;50.996;7.044;2022-10-31T06:17:46;7.40;;;3.55;;
11287;SDS011;5700;50.996;7.044;2022-10-31T06:20:48;6.32;;;4.22;;
11287;SDS011;5700;50.996;7.044;2022-10-31T06:23:50;7.05;;;3.83;;
11287;SDS011;5700;50.996;7.044;2022-10-31T06:26:51;8.73;;;4.32;;
11287;SDS011;5700;50.996;7.044;2022-10-31T06:29:53;9.38;;;4.00;;
11287;SDS011;5700;50.996;7.044;2022-10-31T06:32:54;8.10;;;3.45;;
11287;SDS011;5700;50.996;7.044;2022-10-31T06:35:57;8.85;;;4.43;;
11287;SDS011;5700;50.996;7.044;2022-10-31T06:38:59;9.15;;;4.18;;
11287;SDS011;5700;50.996;7.044;2022-10-31T06:42:01;9.02;;;3.95;;
11287;SDS011;5700;50.996;7.044;2022-10-31T06:45:02;9.10;;;4.70;;
11287;SDS011;5700;50.996;7.044;2022-10-31T06:48:04;10.95;;;4.15;;
11287;SDS011;5700;50.996;7.044;2022-10-31T06:51:07;8.27;;;4.25;;
11287;SDS011;5700;50.996;7.044;2022-10-31T06:54:08;9.23;;;4.63;;
11287;SDS011;5700;50.996;7.044;2022-10-31T06:57:10;8.25;;;4.30;;
11287;SDS011;5700;50.996;7.044;2022-10-31T07:00:11;10.05;;;3.60;;
11287;SDS011;5700;50.996;7.044;2022-10-31T07:03:13;7.57;;;3.38;;
11287;SDS011;5700;50.996;7.044;2022-10-31T07:06:17;8.18;;;3.15;;
11287;SDS011;5700;50.996;7.044;2022-10-31T07:09:19;6.95;;;3.35;;
11287;SDS011;5700;50.996;7.044;2022-10-31T07:12:21;6.47;;;3.20;;
11287;SDS011;5700;50.996;7.044;2022-10-31T07:15:22;9.02;;;3.50;;
11287;SDS011;5700;50.996;7.044;2022-10-31T07:18:23;13.27;;;3.42;;
11287;SDS011;5700;50.996;7.044;2022-10-31T07:21:26;7.05;;;2.90;;
11287;SDS011;5700;50.996;7.044;2022-10-31T07:24:27;7.65;;;3.47;;
11287;SDS011;5700;50.996;7.044;2022-10-31T07:27:34;9.05;;;3.60;;
11287;SDS011;5700;50.996;7.044;2022-10-31T07:30:36;8.23;;;4.43;;
11287;SDS011;5700;50.996;7.044;2022-10-31T07:33:38;10.20;;;3.85;;
11287;SDS011;5700;50.996;7.044;2022-10-31T07:36:41;9.90;;;3.20;;
11287;SDS011;5700;50.996;7.044;2022-10-31T07:39:42;8.43;;;3.28;;
11287;SDS011;5700;50.996;7.044;2022-10-31T07:42:44;8.18;;;3.78;;
11287;SDS011;5700;50.996;7.044;2022-10-31T07:45:49;7.88;;;3.60;;
11287;SDS011;5700;50.996;7.044;2022-10-31T07:48:51;7.60;;;3.70;;
11287;SDS011;5700;50.996;7.044;2022-10-31T07:51:54;15.50;;;4.80;;
11287;SDS011;5700;50.996;7.044;2022-10-31T07:54:56;10.65;;;4.78;;
11287;SDS011;5700;50.996;7.044;2022-10-31T07:57:57;12.57;;;5.68;;
11287;SDS011;5700;50.996;7.044;2022-10-31T08:00:59;14.75;;;5.40;;
11287;SDS011;5700;50.996;7.044;2022-10-31T08:04:01;10.45;;;4.80;;
11287;SDS011;5700;50.996;7.044;2022-10-31T08:07:03;14.18;;;6.05;;
11287;SDS011;5700;50.996;7.044;2022-10-31T08:10:05;10.55;;;5.18;;
11287;SDS011;5700;50.996;7.044;2022-10-31T08:13:08;12.90;;;4.65;;
11287;SDS011;5700;50.996;7.044;2022-10-31T08:16:11;13.32;;;5.70;;
11287;SDS011;5700;50.996;7.044;2022-10-31T08:19:12;9.23;;;5.30;;
11287;SDS011;5700;50.996;7.044;2022-10-31T08:22:15;13.60;;;5.22;;
11287;SDS011;5700;50.996;7.044;2022-10-31T08:25:16;12.77;;;4.40;;
11287;SDS011;5700;50.996;7.044;2022-10-31T08:28:18;9.90;;;4.78;;
11287;SDS011;5700;50.996;7.044;2022-10-31T08:31:19;10.70;;;5.00;;
11287;SDS011;5700;50.996;7.044;2022-10-31T08:34:21;8.27;;;4.65;;
11287;SDS011;5700;50.996;7.044;2022-10-31T08:37:23;10.20;;;4.32;;
11287;SDS011;5700;50.996;7.044;2022-10-31T08:40:26;11.15;;;4.75;;
11287;SDS011;5700;50.996;7.044;2022-10-31T08:43:28;8.80;;;4.20;;
11287;SDS011;5700;50.996;7.044;2022-10-31T08:46:29;13.68;;;5.22;;
11287;SDS011;5700;50.996;7.044;2022-10-31T08:49:31;11.63;;;4.88;;
11287;SDS011;5700;50.996;7.044;2022-10-31T08:52:34;10.23;;;4.32;;
11287;SDS011;5700;50.996;7.044;2022-10-31T08:55:36;10.60;;;4.97;;
11287;SDS011;5700;50.996;7.044;2022-10-31T08:58:38;10.88;;;5.18;;
11287;SDS011;5700;50.996;7.044;2022-10-31T09:01:39;13.18;;;5.20;;
11287;SDS011;5700;50.996;7.044;2022-10-31T09:04:41;8.35;;;4.32;;
11287;SDS011;5700;50.996;7.044;2022-10-31T09:07:43;13.07;;;6.35;;
11287;SDS011;5700;50.996;7.044;2022-10-31T09:10:45;10.82;;;5.30;;
11287;SDS011;5700;50.996;7.044;2022-10-31T09:13:46;10.05;;;5.28;;
11287;SDS011;5700;50.996;7.044;2022-10-31T09:16:48;10.73;;;4.78;;
11287;SDS011;5700;50.996;7.044;2022-10-31T09:19:49;13.35;;;5.47;;
11287;SDS011;5700;50.996;7.044;2022-10-31T09:22:56;9.50;;;5.30;;
11287;SDS011;5700;50.996;7.044;2022-10-31T09:25:59;7.93;;;3.85;;
11287;SDS011;5700;50.996;7.044;2022-10-31T09:29:01;7.85;;;4.47;;
11287;SDS011;5700;50.996;7.044;2022-10-31T09:32:02;8.43;;;4.05;;
11287;SDS011;5700;50.996;7.044;2022-10-31T09:35:04;11.85;;;4.07;;
11287;SDS011;5700;50.996;7.044;2022-10-31T09:38:08;8.40;;;4.30;;
11287;SDS011;5700;50.996;7.044;2022-10-31T09:41:15;10.23;;;4.03;;
11287;SDS011;5700;50.996;7.044;2022-10-31T09:44:21;10.45;;;4.68;;
11287;SDS011;5700;50.996;7.044;2022-10-31T09:47:40;10.25;;;4.22;;
11287;SDS011;5700;50.996;7.044;2022-10-31T09:50:48;8.45;;;4.40;;
11287;SDS011;5700;50.996;7.044;2022-10-31T09:53:56;7.68;;;4.05;;
11287;SDS011;5700;50.996;7.044;2022-10-31T09:57:00;9.27;;;4.45;;
11287;SDS011;5700;50.996;7.044;2022-10-31T10:00:03;9.40;;;4.65;;
11287;SDS011;5700;50.996;7.044;2022-10-31T10:03:07;11.20;;;3.80;;
11287;SDS011;5700;50.996;7.044;2022-10-31T10:06:14;14.25;;;5.03;;
11287;SDS011;5700;50.996;7.044;2022-10-31T10:09:18;7.03;;;3.88;;
11287;SDS011;5700;50.996;7.044;2022-10-31T10:12:23;10.02;;;3.85;;
11287;SDS011;5700;50.996;7.044;2022-10-31T10:15:39;9.07;;;4.55;;
11287;SDS011;5700;50.996;7.044;2022-10-31T10:18:52;9.38;;;4.18;;
11287;SDS011;5700;50.996;7.044;2022-10-31T10:21:59;14.25;;;5.18;;
11287;SDS011;5700;50.996;7.044;2022-10-31T10:25:12;9.10;;;4.47;;
11287;SDS011;5700;50.996;7.044;2022-10-31T10:28:17;9.65;;;4.20;;
11287;SDS011;5700;50.996;7.044;2022-10-31T10:31:23;10.30;;;3.90;;
11287;SDS011;5700;50.996;7.044;2022-10-31T10:34:27;12.43;;;4.55;;
11287;SDS011;5700;50.996;7.044;2022-10-31T10:37:32;9.40;;;3.67;;
11287;SDS011;5700;50.996;7.044;2022-10-31T10:40:38;7.88;;;3.80;;
11287;SDS011;5700;50.996;7.044;2022-10-31T10:43:39;7.63;;;3.50;;
11287;SDS011;5700;50.996;7.044;2022-10-31T10:46:41;8.35;;;3.72;;
11287;SDS011;5700;50.996;7.044;2022-10-31T10:49:57;10.20;;;3.42;;
11287;SDS011;5700;50.996;7.044;2022-10-31T10:53:01;5.80;;;3.20;;
11287;SDS011;5700;50.996;7.044;2022-10-31T10:56:11;11.40;;;3.33;;
11287;SDS011;5700;50.996;7.044;2022-10-31T10:59:18;10.10;;;3.28;;
11287;SDS011;5700;50.996;7.044;2022-10-31T11:02:22;14.70;;;3.78;;
11287;SDS011;5700;50.996;7.044;2022-10-31T11:05:26;11.02;;;3.53;;
11287;SDS011;5700;50.996;7.044;2022-10-31T11:08:32;10.85;;;3.33;;
11287;SDS011;5700;50.996;7.044;2022-10-31T11:11:35;9.57;;;2.95;;
11287;SDS011;5700;50.996;7.044;2022-10-31T11:14:43;8.27;;;3.30;;
11287;SDS011;5700;50.996;7.044;2022-10-31T11:17:47;9.75;;;3.47;;
11287;SDS011;5700;50.996;7.044;2022-10-31T11:20:51;10.15;;;3.83;;
11287;SDS011;5700;50.996;7.044;2022-10-31T11:24:01;12.95;;;3.03;;
11287;SDS011;5700;50.996;7.044;2022-10-31T11:27:11;7.07;;;2.88;;
11287;SDS011;5700;50.996;7.044;2022-10-31T11:30:15;8.63;;;2.75;;
11287;SDS011;5700;50.996;7.044;2022-10-31T11:33:17;11.43;;;3.10;;
11287;SDS011;5700;50.996;7.044;2022-10-31T11:36:21;10.60;;;3.40;;
11287;SDS011;5700;50.996;7.044;2022-10-31T11:39:24;9.32;;;3.38;;
11287;SDS011;5700;50.996;7.044;2022-10-31T11:42:27;9.70;;;2.90;;
11287;SDS011;5700;50.996;7.044;2022-10-31T11:45:31;11.35;;;2.53;;
11287;SDS011;5700;50.996;7.044;2022-10-31T11:48:33;6.15;;;2.97;;
11287;SDS011;5700;50.996;7.044;2022-10-31T11:51:35;7.30;;;3.08;;
11287;SDS011;5700;50.996;7.044;2022-10-31T11:54:38;8.32;;;2.47;;
11287;SDS011;5700;50.996;7.044;2022-10-31T11:57:45;5.30;;;2.47;;
11287;SDS011;5700;50.996;7.044;2022-10-31T12:00:48;7.95;;;2.67;;
11287;SDS011;5700;50.996;7.044;2022-10-31T12:03:54;9.90;;;3.00;;
11287;SDS011;5700;50.996;7.044;2022-10-31T12:06:59;7.90;;;2.50;;
11287;SDS011;5700;50.996;7.044;2022-10-31T12:10:00;9.38;;;2.33;;
11287;SDS011;5700;50.996;7.044;2022-10-31T12:13:05;5.18;;;2.20;;
11287;SDS011;5700;50.996;7.044;2022-10-31T12:16:12;13.27;;;2.88;;
11287;SDS011;5700;50.996;7.044;2022-10-31T12:19:21;7.70;;;2.30;;
11287;SDS011;5700;50.996;7.044;2022-10-31T12:22:32;6.05;;;2.42;;
11287;SDS011;5700;50.996;7.044;2022-10-31T12:25:39;9.45;;;2.80;;
11287;SDS011;5700;50.996;7.044;2022-10-31T12:28:51;8.95;;;2.42;;
11287;SDS011;5700;50.996;7.044;2022-10-31T12:32:04;7.03;;;2.30;;
11287;SDS011;5700;50.996;7.044;2022-10-31T12:35:21;7.20;;;2.63;;
11287;SDS011;5700;50.996;7.044;2022-10-31T12:38:32;7.43;;;2.85;;
11287;SDS011;5700;50.996;7.044;2022-10-31T12:41:44;6.72;;;2.72;;
11287;SDS011;5700;50.996;7.044;2022-10-31T12:44:56;6.85;;;2.17;;
11287;SDS011;5700;50.996;7.044;2022-10-31T12:48:08;5.13;;;2.60;;
11287;SDS011;5700;50.996;7.044;2022-10-31T12:51:17;6.38;;;2.65;;
11287;SDS011;5700;50.996;7.044;2022-10-31T12:54:29;6.50;;;2.75;;
11287;SDS011;5700;50.996;7.044;2022-10-31T12:57:39;7.05;;;2.88;;
11287;SDS011;5700;50.996;7.044;2022-10-31T13:00:44;4.80;;;2.20;;
11287;SDS011;5700;50.996;7.044;2022-10-31T13:03:49;6.32;;;2.47;;
11287;SDS011;5700;50.996;7.044;2022-10-31T13:06:53;5.47;;;1.58;;
11287;SDS011;5700;50.996;7.044;2022-10-31T13:09:58;4.72;;;2.00;;
11287;SDS011;5700;50.996;7.044;2022-10-31T13:13:12;3.47;;;2.00;;
11287;SDS011;5700;50.996;7.044;2022-10-31T13:16:22;3.25;;;1.73;;
11287;SDS011;5700;50.996;7.044;2022-10-31T13:19:27;6.35;;;2.05;;
11287;SDS011;5700;50.996;7.044;2022-10-31T13:22:31;6.95;;;2.30;;
11287;SDS011;5700;50.996;7.044;2022-10-31T13:25:37;5.82;;;1.95;;
11287;SDS011;5700;50.996;7.044;2022-10-31T13:28:42;6.57;;;2.40;;
11287;SDS011;5700;50.996;7.044;2022-10-31T13:31:48;4.45;;;1.95;;
11287;SDS011;5700;50.996;7.044;2022-10-31T13:34:50;3.78;;;1.63;;
11287;SDS011;5700;50.996;7.044;2022-10-31T13:37:56;5.00;;;1.70;;
11287;SDS011;5700;50.996;7.044;2022-10-31T13:41:04;5.75;;;2.08;;
11287;SDS011;5700;50.996;7.044;2022-10-31T13:44:11;7.90;;;2.22;;
11287;SDS011;5700;50.996;7.044;2022-10-31T13:47:22;3.83;;;1.67;;
11287;SDS011;5700;50.996;7.044;2022-10-31T13:50:26;4.75;;;2.03;;
11287;SDS011;5700;50.996;7.044;2022-10-31T13:53:37;5.78;;;1.58;;
11287;SDS011;5700;50.996;7.044;2022-10-31T13:56:40;3.97;;;1.90;;
11287;SDS011;5700;50.996;7.044;2022-10-31T13:59:45;5.88;;;1.98;;
11287;SDS011;5700;50.996;7.044;2022-10-31T14:02:51;4.55;;;1.90;;
11287;SDS011;5700;50.996;7.044;2022-10-31T14:05:54;5.43;;;2.08;;
11287;SDS011;5700;50.996;7.044;2022-10-31T14:08:57;7.63;;;2.10;;
11287;SDS011;5700;50.996;7.044;2022-10-31T14:12:00;9.48;;;2.42;;
11287;SDS011;5700;50.996;7.044;2022-10-31T14:15:05;9.68;;;2.20;;
11287;SDS011;5700;50.996;7.044;2022-10-31T14:18:20;6.85;;;2.15;;
11287;SDS011;5700;50.996;7.044;2022-10-31T14:21:26;5.38;;;2.10;;
11287;SDS011;5700;50.996;7.044;2022-10-31T14:24:31;7.07;;;2.78;;
11287;SDS011;5700;50.996;7.044;2022-10-31T14:27:44;5.47;;;2.67;;
11287;SDS011;5700;50.996;7.044;2022-10-31T14:30:54;3.42;;;1.83;;
11287;SDS011;5700;50.996;7.044;2022-10-31T14:33:58;6.90;;;2.00;;
11287;SDS011;5700;50.996;7.044;2022-10-31T14:37:11;5.00;;;2.00;;
11287;SDS011;5700;50.996;7.044;2022-10-31T14:40:22;5.43;;;1.90;;
11287;SDS011;5700;50.996;7.044;2022-10-31T14:43:31;5.22;;;2.15;;
11287;SDS011;5700;50.996;7.044;2022-10-31T14:46:42;4.05;;;1.73;;
11287;SDS011;5700;50.996;7.044;2022-10-31T14:49:57;7.78;;;1.90;;
11287;SDS011;5700;50.996;7.044;2022-10-31T14:53:12;8.52;;;2.22;;
11287;SDS011;5700;50.996;7.044;2022-10-31T14:56:17;3.45;;;1.73;;
11287;SDS011;5700;50.996;7.044;2022-10-31T14:59:21;5.55;;;1.85;;
11287;SDS011;5700;50.996;7.044;2022-10-31T15:02:26;3.92;;;1.73;;
11287;SDS011;5700;50.996;7.044;2022-10-31T15:05:32;8.10;;;1.90;;
11287;SDS011;5700;50.996;7.044;2022-10-31T15:08:35;9.45;;;2.08;;
11287;SDS011;5700;50.996;7.044;2022-10-31T15:11:39;5.30;;;1.70;;
11287;SDS011;5700;50.996;7.044;2022-10-31T15:14:40;6.22;;;2.00;;
11287;SDS011;5700;50.996;7.044;2022-10-31T15:17:43;4.00;;;2.05;;
11287;SDS011;5700;50.996;7.044;2022-10-31T15:20:46;4.55;;;1.92;;
11287;SDS011;5700;50.996;7.044;2022-10-31T15:23:47;5.50;;;1.77;;
11287;SDS011;5700;50.996;7.044;2022-10-31T15:26:51;4.25;;;1.48;;
11287;SDS011;5700;50.996;7.044;2022-10-31T15:29:54;3.47;;;1.80;;
11287;SDS011;5700;50.996;7.044;2022-10-31T15:32:56;3.20;;;1.52;;
11287;SDS011;5700;50.996;7.044;2022-10-31T15:36:00;6.45;;;2.03;;
11287;SDS011;5700;50.996;7.044;2022-10-31T15:39:01;3.47;;;1.65;;
11287;SDS011;5700;50.996;7.044;2022-10-31T15:42:03;10.32;;;1.58;;
11287;SDS011;5700;50.996;7.044;2022-10-31T15:45:05;4.18;;;1.48;;
11287;SDS011;5700;50.996;7.044;2022-10-31T15:48:20;5.30;;;2.20;;
11287;SDS011;5700;50.996;7.044;2022-10-31T15:51:28;4.00;;;1.98;;
11287;SDS011;5700;50.996;7.044;2022-10-31T15:54:31;2.83;;;1.67;;
11287;SDS011;5700;50.996;7.044;2022-10-31T15:57:32;7.60;;;1.33;;
11287;SDS011;5700;50.996;7.044;2022-10-31T16:00:34;6.68;;;2.15;;
11287;SDS011;5700;50.996;7.044;2022-10-31T16:03:37;4.20;;;1.95;;
11287;SDS011;5700;50.996;7.044;2022-10-31T16:06:40;8.52;;;2.10;;
11287;SDS011;5700;50.996;7.044;2022-10-31T16:09:48;3.80;;;1.60;;
11287;SDS011;5700;50.996;7.044;2022-10-31T16:12:51;7.95;;;1.73;;
11287;SDS011;5700;50.996;7.044;2022-10-31T16:15:54;4.95;;;1.80;;
11287;SDS011;5700;50.996;7.044;2022-10-31T16:18:57;5.20;;;1.70;;
11287;SDS011;5700;50.996;7.044;2022-10-31T16:22:04;5.30;;;1.80;;
11287;SDS011;5700;50.996;7.044;2022-10-31T16:25:08;2.72;;;1.67;;
11287;SDS011;5700;50.996;7.044;2022-10-31T16:28:13;21.85;;;3.35;;
11287;SDS011;5700;50.996;7.044;2022-10-31T16:31:24;9.43;;;2.22;;
11287;SDS011;5700;50.996;7.044;2022-10-31T16:34:27;6.28;;;2.03;;
11287;SDS011;5700;50.996;7.044;2022-10-31T16:37:30;5.95;;;2.05;;
11287;SDS011;5700;50.996;7.044;2022-10-31T16:40:31;6.38;;;2.65;;
11287;SDS011;5700;50.996;7.044;2022-10-31T16:43:33;3.95;;;1.77;;
11287;SDS011;5700;50.996;7.044;2022-10-31T16:46:35;5.90;;;2.50;;
11287;SDS011;5700;50.996;7.044;2022-10-31T16:49:37;5.25;;;2.30;;
11287;SDS011;5700;50.996;7.044;2022-10-31T16:52:40;6.15;;;2.13;;
11287;SDS011;5700;50.996;7.044;2022-10-31T16:55:44;2.85;;;1.55;;
11287;SDS011;5700;50.996;7.044;2022-10-31T16:58:46;6.05;;;2.58;;
11287;SDS011;5700;50.996;7.044;2022-10-31T17:01:48;6.72;;;2.30;;
11287;SDS011;5700;50.996;7.044;2022-10-31T17:04:50;5.28;;;2.40;;
11287;SDS011;5700;50.996;7.044;2022-10-31T17:07:52;5.03;;;1.88;;
11287;SDS011;5700;50.996;7.044;2022-10-31T17:10:54;6.97;;;2.35;;
11287;SDS011;5700;50.996;7.044;2022-10-31T17:13:57;5.43;;;2.20;;
11287;SDS011;5700;50.996;7.044;2022-10-31T17:16:58;4.93;;;2.08;;
11287;SDS011;5700;50.996;7.044;2022-10-31T17:20:00;4.32;;;1.98;;
11287;SDS011;5700;50.996;7.044;2022-10-31T17:23:02;6.15;;;2.47;;
11287;SDS011;5700;50.996;7.044;2022-10-31T17:26:04;4.32;;;1.80;;
11287;SDS011;5700;50.996;7.044;2022-10-31T17:29:07;9.75;;;2.13;;
11287;SDS011;5700;50.996;7.044;2022-10-31T17:32:09;7.45;;;2.50;;
11287;SDS011;5700;50.996;7.044;2022-10-31T17:35:10;5.15;;;2.10;;
11287;SDS011;5700;50.996;7.044;2022-10-31T17:38:14;9.18;;;2.55;;
11287;SDS011;5700;50.996;7.044;2022-10-31T17:41:16;8.25;;;2.42;;
11287;SDS011;5700;50.996;7.044;2022-10-31T17:44:17;4.32;;;2.22;;
11287;SDS011;5700;50.996;7.044;2022-10-31T17:47:18;6.45;;;2.35;;
11287;SDS011;5700;50.996;7.044;2022-10-31T17:50:21;4.43;;;1.90;;
11287;SDS011;5700;50.996;7.044;2022-10-31T17:53:24;7.70;;;2.78;;
11287;SDS011;5700;50.996;7.044;2022-10-31T17:56:28;3.85;;;2.05;;
11287;SDS011;5700;50.996;7.044;2022-10-31T17:59:30;7.05;;;2.65;;
11287;SDS011;5700;50.996;7.044;2022-10-31T18:02:31;9.70;;;2.78;;
11287;SDS011;5700;50.996;7.044;2022-10-31T18:05:33;4.47;;;2.40;;
11287;SDS011;5700;50.996;7.044;2022-10-31T18:08:36;4.85;;;1.88;;
11287;SDS011;5700;50.996;7.044;2022-10-31T18:11:39;5.88;;;2.63;;
11287;SDS011;5700;50.996;7.044;2022-10-31T18:14:40;10.30;;;3.15;;
11287;SDS011;5700;50.996;7.044;2022-10-31T18:17:42;6.85;;;2.85;;
11287;SDS011;5700;50.996;7.044;2022-10-31T18:20:44;4.55;;;2.50;;
11287;SDS011;5700;50.996;7.044;2022-10-31T18:23:47;6.07;;;2.53;;
11287;SDS011;5700;50.996;7.044;2022-10-31T18:26:48;8.90;;;2.45;;
11287;SDS011;5700;50.996;7.044;2022-10-31T18:29:50;7.57;;;2.70;;
11287;SDS011;5700;50.996;7.044;2022-10-31T18:32:51;8.38;;;2.75;;
11287;SDS011;5700;50.996;7.044;2022-10-31T18:35:53;8.63;;;3.08;;
11287;SDS011;5700;50.996;7.044;2022-10-31T18:38:56;4.32;;;2.20;;
11287;SDS011;5700;50.996;7.044;2022-10-31T18:41:57;5.95;;;2.47;;